sensor_id;sensor_type;location;lat;lon;timestamp;pressure;altitude;pressure_sealevel;temperature;humidity
69982;BME280;57319;56.274;43.980;2023-05-10T00:00:24;100703.06;;;4.99;50.01
69982;BME280;57319;56.274;43.980;2023-05-10T00:02:49;100709.84;;;4.99;50.34
69982;BME280;57319;56.274;43.980;2023-05-10T00:05:15;100709.00;;;5.00;50.13
69982;BME280;57319;56.274;43.980;2023-05-10T00:07:41;100708.16;;;4.99;50.10
69982;BME280;57319;56.274;43.980;2023-05-10T00:10:10;100703.09;;;5.01;50.28
69982;BME280;57319;56.274;43.980;2023-05-10T00:12:36;100699.69;;;5.00;49.99
69982;BME280;57319;56.274;43.980;2023-05-10T00:15:03;100700.53;;;5.01;49.32
69982;BME280;57319;56.274;43.980;2023-05-10T00:17:32;100699.84;;;5.08;50.46
69982;BME280;57319;56.274;43.980;2023-05-10T00:19:58;100700.69;;;5.07;50.27
69982;BME280;57319;56.274;43.980;2023-05-10T00:22:24;100699.81;;;5.06;50.00
69982;BME280;57319;56.274;43.980;2023-05-10T00:24:49;100698.94;;;5.04;49.95
69982;BME280;57319;56.274;43.980;2023-05-10T00:27:15;100698.91;;;5.03;50.60
69982;BME280;57319;56.274;43.980;2023-05-10T00:29:41;100701.50;;;5.04;51.12
69982;BME280;57319;56.274;43.980;2023-05-10T00:32:06;100699.72;;;5.02;51.60
69982;BME280;57319;56.274;43.980;2023-05-10T00:34:32;100707.44;;;5.05;51.83
69982;BME280;57319;56.274;43.980;2023-05-10T00:36:58;100699.78;;;5.05;51.14
69982;BME280;57319;56.274;43.980;2023-05-10T00:39:23;100700.69;;;5.07;50.40
69982;BME280;57319;56.274;43.980;2023-05-10T00:41:49;100702.41;;;5.08;51.16
69982;BME280;57319;56.274;43.980;2023-05-10T00:44:15;100696.44;;;5.07;51.38
69982;BME280;57319;56.274;43.980;2023-05-10T00:46:41;100693.03;;;5.07;50.58
69982;BME280;57319;56.274;43.980;2023-05-10T00:49:07;100697.22;;;5.05;50.46
69982;BME280;57319;56.274;43.980;2023-05-10T00:51:33;100698.97;;;5.06;50.70
69982;BME280;57319;56.274;43.980;2023-05-10T00:53:59;100704.91;;;5.06;51.23
69982;BME280;57319;56.274;43.980;2023-05-10T00:56:25;100690.41;;;5.04;51.33
69982;BME280;57319;56.274;43.980;2023-05-10T00:58:52;100692.94;;;5.04;50.90
69982;BME280;57319;56.274;43.980;2023-05-10T01:01:18;100697.16;;;5.02;50.65
69982;BME280;57319;56.274;43.980;2023-05-10T01:03:45;100698.06;;;5.04;50.81
69982;BME280;57319;56.274;43.980;2023-05-10T01:06:10;100693.88;;;5.06;51.83
69982;BME280;57319;56.274;43.980;2023-05-10T01:08:36;100696.44;;;5.07;51.67
69982;BME280;57319;56.274;43.980;2023-05-10T01:11:02;100695.53;;;5.05;51.13
69982;BME280;57319;56.274;43.980;2023-05-10T01:13:34;100698.97;;;5.06;50.91
69982;BME280;57319;56.274;43.980;2023-05-10T01:16:01;100693.94;;;5.09;51.14
69982;BME280;57319;56.274;43.980;2023-05-10T01:18:33;100691.47;;;5.14;51.32
69982;BME280;57319;56.274;43.980;2023-05-10T01:21:43;100699.25;;;5.17;52.35
69982;BME280;57319;56.274;43.980;2023-05-10T01:35:38;100702.97;;;5.31;51.46
69982;BME280;57319;56.274;43.980;2023-05-10T01:40:52;100696.56;;;5.47;52.71
69982;BME280;57319;56.274;43.980;2023-05-10T01:43:28;100704.28;;;5.50;52.45
69982;BME280;57319;56.274;43.980;2023-05-10T01:46:04;100692.44;;;5.54;52.96
69982;BME280;57319;56.274;43.980;2023-05-10T01:48:40;100697.59;;;5.55;52.72
69982;BME280;57319;56.274;43.980;2023-05-10T01:51:16;100695.16;;;5.61;52.71
69982;BME280;57319;56.274;43.980;2023-05-10T01:53:46;100699.47;;;5.64;52.32
69982;BME280;57319;56.274;43.980;2023-05-10T01:56:13;100692.72;;;5.66;52.12
69982;BME280;57319;56.274;43.980;2023-05-10T01:58:43;100691.09;;;5.71;51.15
69982;BME280;57319;56.274;43.980;2023-05-10T02:01:12;100693.88;;;5.81;52.85
69982;BME280;57319;56.274;43.980;2023-05-10T02:03:40;100687.91;;;5.80;52.47
69982;BME280;57319;56.274;43.980;2023-05-10T02:06:09;100687.94;;;5.82;51.87
69982;BME280;57319;56.274;43.980;2023-05-10T02:08:36;100688.00;;;5.85;51.22
69982;BME280;57319;56.274;43.980;2023-05-10T02:11:03;100692.34;;;5.89;51.62
69982;BME280;57319;56.274;43.980;2023-05-10T02:13:31;100692.38;;;5.90;52.04
69982;BME280;57319;56.274;43.980;2023-05-10T02:16:01;100693.25;;;5.91;51.95
69982;BME280;57319;56.274;43.980;2023-05-10T02:18:29;100687.41;;;5.97;52.06
69982;BME280;57319;56.274;43.980;2023-05-10T02:20:57;100694.31;;;5.99;51.89
69982;BME280;57319;56.274;43.980;2023-05-10T02:23:25;100691.81;;;6.02;52.12
69982;BME280;57319;56.274;43.980;2023-05-10T02:25:52;100687.69;;;6.07;52.04
69982;BME280;57319;56.274;43.980;2023-05-10T02:28:21;100687.69;;;6.07;52.11
69982;BME280;57319;56.274;43.980;2023-05-10T02:30:47;100682.66;;;6.12;52.30
69982;BME280;57319;56.274;43.980;2023-05-10T02:33:13;100689.53;;;6.16;51.91
69982;BME280;57319;56.274;43.980;2023-05-10T02:35:40;100689.59;;;6.19;51.72
69982;BME280;57319;56.274;43.980;2023-05-10T02:38:07;100680.31;;;6.23;51.27
69982;BME280;57319;56.274;43.980;2023-05-10T02:40:33;100688.06;;;6.27;51.22
69982;BME280;57319;56.274;43.980;2023-05-10T02:43:01;100679.63;;;6.33;50.62
69982;BME280;57319;56.274;43.980;2023-05-10T02:45:30;100678.03;;;6.38;50.31
69982;BME280;57319;56.274;43.980;2023-05-10T02:47:56;100674.72;;;6.42;49.59
69982;BME280;57319;56.274;43.980;2023-05-10T02:50:26;100673.91;;;6.45;49.04
69982;BME280;57319;56.274;43.980;2023-05-10T02:52:55;100675.72;;;6.51;48.54
69982;BME280;57319;56.274;43.980;2023-05-10T02:55:26;100669.03;;;6.57;47.55
69982;BME280;57319;56.274;43.980;2023-05-10T02:58:01;100667.41;;;6.61;46.80
69982;BME280;57319;56.274;43.980;2023-05-10T03:00:28;100670.84;;;6.65;46.68
69982;BME280;57319;56.274;43.980;2023-05-10T03:02:54;100673.53;;;6.71;46.15
69982;BME280;57319;56.274;43.980;2023-05-10T03:05:20;100665.25;;;6.84;46.63
69982;BME280;57319;56.274;43.980;2023-05-10T03:07:46;100673.03;;;6.92;45.00
69982;BME280;57319;56.274;43.980;2023-05-10T03:10:13;100667.16;;;6.97;46.02
69982;BME280;57319;56.274;43.980;2023-05-10T03:18:10;100663.97;;;7.12;46.41
69982;BME280;57319;56.274;43.980;2023-05-10T03:20:42;100672.59;;;7.16;45.68
69982;BME280;57319;56.274;43.980;2023-05-10T03:23:17;100667.47;;;7.16;44.83
69982;BME280;57319;56.274;43.980;2023-05-10T03:25:48;100668.41;;;7.21;45.16
69982;BME280;57319;56.274;43.980;2023-05-10T03:28:15;100667.63;;;7.27;46.23
69982;BME280;57319;56.274;43.980;2023-05-10T03:30:42;100672.81;;;7.32;46.97
69982;BME280;57319;56.274;43.980;2023-05-10T03:33:08;100665.16;;;7.35;47.91
69982;BME280;57319;56.274;43.980;2023-05-10T03:35:34;100666.91;;;7.37;47.02
69982;BME280;57319;56.274;43.980;2023-05-10T03:38:00;100669.41;;;7.31;47.35
69982;BME280;57319;56.274;43.980;2023-05-10T03:40:26;100670.25;;;7.30;48.65
69982;BME280;57319;56.274;43.980;2023-05-10T03:42:55;100656.53;;;7.28;48.10
69982;BME280;57319;56.274;43.980;2023-05-10T03:45:20;100662.56;;;7.30;48.87
69982;BME280;57319;56.274;43.980;2023-05-10T03:47:46;100664.28;;;7.31;48.89
69982;BME280;57319;56.274;43.980;2023-05-10T03:50:12;100660.13;;;7.38;49.61
69982;BME280;57319;56.274;43.980;2023-05-10T03:52:37;100664.56;;;7.53;49.82
69982;BME280;57319;56.274;43.980;2023-05-10T03:55:05;100665.53;;;7.59;49.25
69982;BME280;57319;56.274;43.980;2023-05-10T03:57:31;100669.16;;;7.74;48.69
69982;BME280;57319;56.274;43.980;2023-05-10T03:59:57;100664.22;;;7.88;48.16
69982;BME280;57319;56.274;43.980;2023-05-10T04:02:23;100658.38;;;8.00;48.25
69982;BME280;57319;56.274;43.980;2023-05-10T04:04:48;100658.56;;;8.13;47.12
69982;BME280;57319;56.274;43.980;2023-05-10T04:07:14;100655.19;;;8.19;46.81
69982;BME280;57319;56.274;43.980;2023-05-10T04:09:40;100656.94;;;8.22;46.62
69982;BME280;57319;56.274;43.980;2023-05-10T04:12:06;100652.56;;;8.14;47.10
69982;BME280;57319;56.274;43.980;2023-05-10T04:14:32;100658.63;;;8.21;46.95
69982;BME280;57319;56.274;43.980;2023-05-10T04:16:57;100656.13;;;8.26;46.86
69982;BME280;57319;56.274;43.980;2023-05-10T04:19:23;100659.53;;;8.26;46.60
69982;BME280;57319;56.274;43.980;2023-05-10T04:21:49;100657.94;;;8.38;46.39
69982;BME280;57319;56.274;43.980;2023-05-10T04:24:14;100658.03;;;8.44;46.19
69982;BME280;57319;56.274;43.980;2023-05-10T04:26:40;100659.03;;;8.55;46.81
69982;BME280;57319;56.274;43.980;2023-05-10T04:29:06;100649.69;;;8.60;46.71
69982;BME280;57319;56.274;43.980;2023-05-10T04:31:32;100654.91;;;8.73;47.15
69982;BME280;57319;56.274;43.980;2023-05-10T04:33:57;100651.56;;;8.83;46.00
69982;BME280;57319;56.274;43.980;2023-05-10T04:36:23;100650.84;;;8.95;44.91
69982;BME280;57319;56.274;43.980;2023-05-10T04:38:49;100648.34;;;9.04;44.76
69982;BME280;57319;56.274;43.980;2023-05-10T04:41:14;100656.09;;;9.12;43.42
69982;BME280;57319;56.274;43.980;2023-05-10T04:43:40;100653.59;;;9.20;43.50
69982;BME280;57319;56.274;43.980;2023-05-10T04:46:06;100661.38;;;9.29;43.71
69982;BME280;57319;56.274;43.980;2023-05-10T04:48:33;100656.31;;;9.40;43.92
69982;BME280;57319;56.274;43.980;2023-05-10T04:50:59;100656.34;;;9.44;43.58
69982;BME280;57319;56.274;43.980;2023-05-10T04:53:25;100656.41;;;9.54;43.46
69982;BME280;57319;56.274;43.980;2023-05-10T04:55:50;100657.28;;;9.60;43.54
69982;BME280;57319;56.274;43.980;2023-05-10T04:58:16;100647.91;;;9.68;43.27
69982;BME280;57319;56.274;43.980;2023-05-10T05:00:42;100655.66;;;9.78;43.35
69982;BME280;57319;56.274;43.980;2023-05-10T05:03:07;100653.09;;;9.79;42.30
69982;BME280;57319;56.274;43.980;2023-05-10T05:05:33;100647.09;;;9.80;41.70
69982;BME280;57319;56.274;43.980;2023-05-10T05:07:59;100643.69;;;9.83;41.14
69982;BME280;57319;56.274;43.980;2023-05-10T05:10:25;100641.16;;;9.91;41.31
69982;BME280;57319;56.274;43.980;2023-05-10T05:12:50;100642.94;;;10.10;39.77
69982;BME280;57319;56.274;43.980;2023-05-10T05:15:16;100636.09;;;10.20;39.72
69982;BME280;57319;56.274;43.980;2023-05-10T05:17:43;100637.00;;;10.28;39.30
69982;BME280;57319;56.274;43.980;2023-05-10T05:20:09;100637.06;;;10.39;37.15
69982;BME280;57319;56.274;43.980;2023-05-10T05:22:38;100630.19;;;10.37;35.33
69982;BME280;57319;56.274;43.980;2023-05-10T05:25:04;100636.22;;;10.39;35.90
69982;BME280;57319;56.274;43.980;2023-05-10T05:27:32;100625.91;;;10.45;35.43
69982;BME280;57319;56.274;43.980;2023-05-10T05:29:58;100625.06;;;10.57;36.14
69982;BME280;57319;56.274;43.980;2023-05-10T05:32:25;100620.78;;;10.60;36.16
69982;BME280;57319;56.274;43.980;2023-05-10T05:34:51;100625.09;;;10.67;36.26
69982;BME280;57319;56.274;43.980;2023-05-10T05:37:20;100628.50;;;10.66;36.72
69982;BME280;57319;56.274;43.980;2023-05-10T05:39:47;100622.50;;;10.72;37.51
69982;BME280;57319;56.274;43.980;2023-05-10T05:42:13;100607.06;;;10.80;37.54
69982;BME280;57319;56.274;43.980;2023-05-10T05:44:39;100613.06;;;10.96;37.55
69982;BME280;57319;56.274;43.980;2023-05-10T05:47:05;100607.91;;;10.99;37.79
69982;BME280;57319;56.274;43.980;2023-05-10T05:49:31;100610.47;;;11.07;37.74
69982;BME280;57319;56.274;43.980;2023-05-10T05:52:02;100612.19;;;11.20;37.16
69982;BME280;57319;56.274;43.980;2023-05-10T05:54:29;100610.44;;;11.33;36.32
69982;BME280;57319;56.274;43.980;2023-05-10T05:56:55;100608.69;;;11.44;35.95
69982;BME280;57319;56.274;43.980;2023-05-10T05:59:22;100604.34;;;11.52;34.44
69982;BME280;57319;56.274;43.980;2023-05-10T06:01:48;100602.59;;;11.68;34.03
69982;BME280;57319;56.274;43.980;2023-05-10T06:04:14;100595.66;;;11.80;34.26
69982;BME280;57319;56.274;43.980;2023-05-10T06:06:40;100596.53;;;11.83;33.31
69982;BME280;57319;56.274;43.980;2023-05-10T06:09:05;100599.94;;;11.96;34.22
69982;BME280;57319;56.274;43.980;2023-05-10T06:11:31;100595.59;;;12.08;33.99
69982;BME280;57319;56.274;43.980;2023-05-10T06:14:08;100599.88;;;12.12;34.08
69982;BME280;57319;56.274;43.980;2023-05-10T06:16:44;100599.84;;;12.10;32.67
69982;BME280;57319;56.274;43.980;2023-05-10T06:19:11;100593.81;;;12.14;32.60
69982;BME280;57319;56.274;43.980;2023-05-10T06:21:37;100586.88;;;12.22;32.10
69982;BME280;57319;56.274;43.980;2023-05-10T06:24:03;100592.88;;;12.28;31.38
69982;BME280;57319;56.274;43.980;2023-05-10T06:26:30;100589.44;;;12.27;30.94
69982;BME280;57319;56.274;43.980;2023-05-10T06:28:58;100586.91;;;12.24;30.53
69982;BME280;57319;56.274;43.980;2023-05-10T06:31:24;100579.94;;;12.34;30.77
69982;BME280;57319;56.274;43.980;2023-05-10T06:33:50;100578.19;;;12.36;29.82
69982;BME280;57319;56.274;43.980;2023-05-10T06:36:16;100582.44;;;12.43;30.61
69982;BME280;57319;56.274;43.980;2023-05-10T06:38:42;100583.25;;;12.53;30.04
69982;BME280;57319;56.274;43.980;2023-05-10T06:41:08;100573.78;;;12.52;29.63
69982;BME280;57319;56.274;43.980;2023-05-10T06:43:34;100578.91;;;12.55;29.64
69982;BME280;57319;56.274;43.980;2023-05-10T06:46:00;100571.22;;;12.50;29.01
69982;BME280;57319;56.274;43.980;2023-05-10T06:48:26;100574.69;;;12.48;29.30
69982;BME280;57319;56.274;43.980;2023-05-10T06:50:55;100574.63;;;12.54;28.97
69982;BME280;57319;56.274;43.980;2023-05-10T06:53:21;100570.28;;;12.59;29.33
69982;BME280;57319;56.274;43.980;2023-05-10T06:55:47;100560.78;;;12.64;29.20
69982;BME280;57319;56.274;43.980;2023-05-10T06:58:14;100564.09;;;12.77;28.54
69982;BME280;57319;56.274;43.980;2023-05-10T07:00:40;100570.88;;;12.90;28.35
69982;BME280;57319;56.274;43.980;2023-05-10T07:03:10;100568.19;;;13.01;28.75
69982;BME280;57319;56.274;43.980;2023-05-10T07:05:44;100569.00;;;13.06;28.28
69982;BME280;57319;56.274;43.980;2023-05-10T07:08:10;100566.31;;;13.16;27.67
69982;BME280;57319;56.274;43.980;2023-05-10T07:10:36;100560.38;;;13.07;26.34
69982;BME280;57319;56.274;43.980;2023-05-10T07:13:02;100562.88;;;13.17;27.14
69982;BME280;57319;56.274;43.980;2023-05-10T07:15:28;100561.81;;;13.35;26.97
69982;BME280;57319;56.274;43.980;2023-05-10T07:17:54;100557.41;;;13.48;26.95
69982;BME280;57319;56.274;43.980;2023-05-10T07:20:20;100560.59;;;13.68;27.70
69982;BME280;57319;56.274;43.980;2023-05-10T07:22:46;100558.66;;;13.83;26.94
69982;BME280;57319;56.274;43.980;2023-05-10T07:25:12;100561.16;;;13.90;27.18
69982;BME280;57319;56.274;43.980;2023-05-10T07:27:38;100557.59;;;13.98;27.06
69982;BME280;57319;56.274;43.980;2023-05-10T07:30:04;100549.69;;;14.08;27.73
69982;BME280;57319;56.274;43.980;2023-05-10T07:32:33;100549.50;;;14.22;25.73
69982;BME280;57319;56.274;43.980;2023-05-10T07:34:58;100558.78;;;14.36;24.96
69982;BME280;57319;56.274;43.980;2023-05-10T07:37:24;100550.78;;;14.50;24.91
69982;BME280;57319;56.274;43.980;2023-05-10T07:39:50;100546.41;;;14.55;24.31
69982;BME280;57319;56.274;43.980;2023-05-10T07:42:15;100546.22;;;14.66;24.74
69982;BME280;57319;56.274;43.980;2023-05-10T07:44:41;100539.22;;;14.72;24.81
69982;BME280;57319;56.274;43.980;2023-05-10T07:47:07;100538.47;;;14.64;25.07
69982;BME280;57319;56.274;43.980;2023-05-10T07:49:32;100528.28;;;14.55;25.45
69982;BME280;57319;56.274;43.980;2023-05-10T07:51:58;100535.25;;;14.50;25.14
69982;BME280;57319;56.274;43.980;2023-05-10T07:54:24;100534.69;;;14.31;23.29
69982;BME280;57319;56.274;43.980;2023-05-10T07:56:50;100532.09;;;14.31;23.90
69982;BME280;57319;56.274;43.980;2023-05-10T07:59:17;100533.78;;;14.33;24.62
69982;BME280;57319;56.274;43.980;2023-05-10T08:01:43;100528.63;;;14.33;24.85
69982;BME280;57319;56.274;43.980;2023-05-10T08:04:13;100531.16;;;14.36;23.95
69982;BME280;57319;56.274;43.980;2023-05-10T08:06:41;100531.97;;;14.37;24.53
69982;BME280;57319;56.274;43.980;2023-05-10T08:09:07;100524.22;;;14.37;24.19
69982;BME280;57319;56.274;43.980;2023-05-10T08:11:33;100517.31;;;14.37;23.89
69982;BME280;57319;56.274;43.980;2023-05-10T08:13:59;100526.63;;;14.48;24.55
69982;BME280;57319;56.274;43.980;2023-05-10T08:16:24;100520.47;;;14.56;24.99
69982;BME280;57319;56.274;43.980;2023-05-10T08:18:50;100514.69;;;14.40;23.86
69982;BME280;57319;56.274;43.980;2023-05-10T08:21:16;100517.19;;;14.45;24.26
69982;BME280;57319;56.274;43.980;2023-05-10T08:23:43;100515.34;;;14.52;24.08
69982;BME280;57319;56.274;43.980;2023-05-10T08:26:11;100509.09;;;14.65;25.17
69982;BME280;57319;56.274;43.980;2023-05-10T08:28:40;100510.53;;;14.82;24.21
69982;BME280;57319;56.274;43.980;2023-05-10T08:31:06;100512.31;;;14.78;24.46
69982;BME280;57319;56.274;43.980;2023-05-10T08:33:32;100513.03;;;14.86;24.31
69982;BME280;57319;56.274;43.980;2023-05-10T08:35:57;100508.72;;;14.87;24.22
69982;BME280;57319;56.274;43.980;2023-05-10T08:38:23;100513.75;;;14.96;24.52
69982;BME280;57319;56.274;43.980;2023-05-10T08:40:49;100516.63;;;14.79;23.92
69982;BME280;57319;56.274;43.980;2023-05-10T08:43:16;100509.72;;;14.78;24.46
69982;BME280;57319;56.274;43.980;2023-05-10T08:45:43;100505.44;;;14.79;25.47
69982;BME280;57319;56.274;43.980;2023-05-10T08:48:11;100499.16;;;14.90;25.34
69982;BME280;57319;56.274;43.980;2023-05-10T08:50:39;100501.50;;;15.04;24.25
69982;BME280;57319;56.274;43.980;2023-05-10T08:53:10;100495.47;;;15.02;23.80
69982;BME280;57319;56.274;43.980;2023-05-10T08:55:37;100489.47;;;15.00;23.97
69982;BME280;57319;56.274;43.980;2023-05-10T08:58:07;100492.06;;;15.00;24.70
69982;BME280;57319;56.274;43.980;2023-05-10T09:00:34;100492.97;;;14.98;24.09
69982;BME280;57319;56.274;43.980;2023-05-10T09:03:02;100489.69;;;14.89;24.04
69982;BME280;57319;56.274;43.980;2023-05-10T09:05:28;100494.00;;;14.89;23.87
69982;BME280;57319;56.274;43.980;2023-05-10T09:07:53;100486.16;;;14.93;24.06
69982;BME280;57319;56.274;43.980;2023-05-10T09:10:20;100478.22;;;15.01;24.53
69982;BME280;57319;56.274;43.980;2023-05-10T09:12:46;100466.78;;;15.12;24.31
69982;BME280;57319;56.274;43.980;2023-05-10T09:15:15;100479.56;;;15.21;23.84
69982;BME280;57319;56.274;43.980;2023-05-10T09:17:42;100471.06;;;15.14;24.04
69982;BME280;57319;56.274;43.980;2023-05-10T09:20:09;100470.91;;;15.20;24.28
69982;BME280;57319;56.274;43.980;2023-05-10T09:22:35;100472.50;;;15.29;24.31
69982;BME280;57319;56.274;43.980;2023-05-10T09:25:13;100459.38;;;15.35;23.76
69982;BME280;57319;56.274;43.980;2023-05-10T09:27:41;100455.75;;;15.42;23.49
69982;BME280;57319;56.274;43.980;2023-05-10T09:30:08;100454.00;;;15.44;24.01
69982;BME280;57319;56.274;43.980;2023-05-10T09:32:38;100455.97;;;15.32;24.66
69982;BME280;57319;56.274;43.980;2023-05-10T09:35:12;100456.84;;;15.32;23.70
69982;BME280;57319;56.274;43.980;2023-05-10T09:37:43;100451.72;;;15.31;23.26
69982;BME280;57319;56.274;43.980;2023-05-10T09:40:17;100444.13;;;15.21;23.32
69982;BME280;57319;56.274;43.980;2023-05-10T09:43:07;100448.31;;;15.27;22.99
69982;BME280;57319;56.274;43.980;2023-05-10T09:45:34;100434.47;;;15.28;24.06
69982;BME280;57319;56.274;43.980;2023-05-10T09:48:02;100438.34;;;15.08;23.59
69982;BME280;57319;56.274;43.980;2023-05-10T09:50:29;100447.06;;;15.04;24.47
69982;BME280;57319;56.274;43.980;2023-05-10T09:53:00;100438.41;;;15.04;23.91
69982;BME280;57319;56.274;43.980;2023-05-10T09:55:37;100429.72;;;15.06;23.90
69982;BME280;57319;56.274;43.980;2023-05-10T09:58:03;100431.34;;;15.12;24.25
69982;BME280;57319;56.274;43.980;2023-05-10T10:00:39;100419.13;;;15.17;23.69
69982;BME280;57319;56.274;43.980;2023-05-10T10:03:06;100415.59;;;15.21;23.60
69982;BME280;57319;56.274;43.980;2023-05-10T10:05:35;100423.94;;;15.34;23.72
69982;BME280;57319;56.274;43.980;2023-05-10T10:08:05;100417.78;;;15.40;23.15
69982;BME280;57319;56.274;43.980;2023-05-10T10:10:32;100413.38;;;15.43;23.05
69982;BME280;57319;56.274;43.980;2023-05-10T10:12:59;100408.22;;;15.42;23.30
69982;BME280;57319;56.274;43.980;2023-05-10T10:15:25;100408.91;;;15.50;23.78
69982;BME280;57319;56.274;43.980;2023-05-10T10:17:52;100411.34;;;15.56;23.72
69982;BME280;57319;56.274;43.980;2023-05-10T10:20:19;100407.16;;;15.51;23.04
69982;BME280;57319;56.274;43.980;2023-05-10T10:22:46;100401.31;;;15.41;23.17
69982;BME280;57319;56.274;43.980;2023-05-10T10:25:13;100401.09;;;15.52;23.60
69982;BME280;57319;56.274;43.980;2023-05-10T10:35:49;100395.94;;;15.88;23.58
69982;BME280;57319;56.274;43.980;2023-05-10T10:38:16;100390.66;;;15.92;23.12
69982;BME280;57319;56.274;43.980;2023-05-10T10:40:42;100388.13;;;15.89;23.12
69982;BME280;57319;56.274;43.980;2023-05-10T10:43:27;100380.94;;;15.63;23.80
69982;BME280;57319;56.274;43.980;2023-05-10T10:46:16;100398.44;;;15.53;24.64
69982;BME280;57319;56.274;43.980;2023-05-10T10:49:08;100388.28;;;15.46;23.40
69982;BME280;57319;56.274;43.980;2023-05-10T10:52:12;100376.81;;;15.54;23.48
69982;BME280;57319;56.274;43.980;2023-05-10T10:54:38;100375.22;;;15.86;23.53
69982;BME280;57319;56.274;43.980;2023-05-10T10:57:11;100377.81;;;16.21;23.69
69982;BME280;57319;56.274;43.980;2023-05-10T10:59:44;100371.63;;;16.25;23.09
69982;BME280;57319;56.274;43.980;2023-05-10T11:02:10;100376.00;;;16.24;23.05
69982;BME280;57319;56.274;43.980;2023-05-10T11:04:42;100367.63;;;16.46;23.02
69982;BME280;57319;56.274;43.980;2023-05-10T11:07:18;100366.72;;;16.47;22.56
69982;BME280;57319;56.274;43.980;2023-05-10T11:09:46;100362.00;;;16.61;22.48
69982;BME280;57319;56.274;43.980;2023-05-10T11:12:12;100360.84;;;17.32;22.08
69982;BME280;57319;56.274;43.980;2023-05-10T11:14:38;100362.88;;;18.04;22.13
69982;BME280;57319;56.274;43.980;2023-05-10T11:17:22;100355.78;;;18.09;21.59
69982;BME280;57319;56.274;43.980;2023-05-10T11:20:09;100347.66;;;17.91;21.39
69982;BME280;57319;56.274;43.980;2023-05-10T11:22:52;100332.72;;;18.71;20.77
69982;BME280;57319;56.274;43.980;2023-05-10T11:25:18;100345.44;;;19.70;20.23
69982;BME280;57319;56.274;43.980;2023-05-10T11:27:46;100338.09;;;20.80;18.93
69982;BME280;57319;56.274;43.980;2023-05-10T11:30:13;100336.06;;;21.61;18.33
69982;BME280;57319;56.274;43.980;2023-05-10T11:32:40;100322.78;;;21.28;18.35
69982;BME280;57319;56.274;43.980;2023-05-10T11:35:12;100319.84;;;20.40;19.48
69982;BME280;57319;56.274;43.980;2023-05-10T11:37:39;100323.06;;;19.63;20.41
69982;BME280;57319;56.274;43.980;2023-05-10T11:40:09;100314.75;;;18.87;20.63
69982;BME280;57319;56.274;43.980;2023-05-10T11:42:38;100314.88;;;18.60;21.54
69982;BME280;57319;56.274;43.980;2023-05-10T11:45:05;100322.19;;;18.50;21.61
69982;BME280;57319;56.274;43.980;2023-05-10T11:47:31;100310.78;;;18.29;21.94
69982;BME280;57319;56.274;43.980;2023-05-10T11:49:57;100310.16;;;18.22;21.83
69982;BME280;57319;56.274;43.980;2023-05-10T11:52:23;100307.94;;;18.11;21.96
69982;BME280;57319;56.274;43.980;2023-05-10T11:54:54;100308.53;;;17.94;21.24
69982;BME280;57319;56.274;43.980;2023-05-10T11:57:25;100306.91;;;17.90;21.12
69982;BME280;57319;56.274;43.980;2023-05-10T11:59:54;100304.13;;;17.70;21.62
69982;BME280;57319;56.274;43.980;2023-05-10T12:02:20;100301.88;;;17.84;22.49
69982;BME280;57319;56.274;43.980;2023-05-10T12:04:46;100303.97;;;18.01;22.47
69982;BME280;57319;56.274;43.980;2023-05-10T12:07:12;100310.63;;;17.56;22.33
69982;BME280;57319;56.274;43.980;2023-05-10T12:09:43;100302.69;;;17.06;23.03
69982;BME280;57319;56.274;43.980;2023-05-10T12:12:16;100296.22;;;16.59;23.34
69982;BME280;57319;56.274;43.980;2023-05-10T12:14:42;100298.41;;;16.43;23.57
69982;BME280;57319;56.274;43.980;2023-05-10T12:17:11;100303.81;;;16.67;23.58
69982;BME280;57319;56.274;43.980;2023-05-10T12:19:38;100299.13;;;16.78;23.17
69982;BME280;57319;56.274;43.980;2023-05-10T12:22:05;100290.06;;;16.93;23.76
69982;BME280;57319;56.274;43.980;2023-05-10T12:24:34;100293.16;;;17.06;22.65
69982;BME280;57319;56.274;43.980;2023-05-10T12:27:04;100291.19;;;17.67;21.88
69982;BME280;57319;56.274;43.980;2023-05-10T12:29:31;100287.34;;;17.78;22.53
69982;BME280;57319;56.274;43.980;2023-05-10T12:31:58;100280.78;;;17.93;22.66
69982;BME280;57319;56.274;43.980;2023-05-10T12:36:54;100284.47;;;17.34;22.75
69982;BME280;57319;56.274;43.980;2023-05-10T12:39:20;100292.22;;;17.07;23.36
69982;BME280;57319;56.274;43.980;2023-05-10T12:41:57;100284.34;;;16.81;23.35
69982;BME280;57319;56.274;43.980;2023-05-10T12:44:23;100289.25;;;16.61;23.57
69982;BME280;57319;56.274;43.980;2023-05-10T12:46:49;100285.28;;;16.48;24.17
69982;BME280;57319;56.274;43.980;2023-05-10T12:49:14;100284.56;;;16.43;23.85
69982;BME280;57319;56.274;43.980;2023-05-10T12:51:40;100285.78;;;16.31;24.08
69982;BME280;57319;56.274;43.980;2023-05-10T12:54:06;100281.94;;;16.13;23.95
69982;BME280;57319;56.274;43.980;2023-05-10T12:56:32;100283.34;;;15.92;24.19
69982;BME280;57319;56.274;43.980;2023-05-10T12:58:57;100281.84;;;16.48;23.24
69982;BME280;57319;56.274;43.980;2023-05-10T13:01:23;100267.94;;;17.08;22.59
69982;BME280;57319;56.274;43.980;2023-05-10T13:03:49;100273.75;;;16.87;22.85
69982;BME280;57319;56.274;43.980;2023-05-10T13:06:15;100271.09;;;16.88;23.12
69982;BME280;57319;56.274;43.980;2023-05-10T13:08:41;100269.50;;;16.84;23.49
69982;BME280;57319;56.274;43.980;2023-05-10T13:11:07;100268.66;;;16.84;23.19
69982;BME280;57319;56.274;43.980;2023-05-10T13:13:33;100263.47;;;16.84;23.03
69982;BME280;57319;56.274;43.980;2023-05-10T13:15:58;100267.72;;;16.86;23.33